Time,TemperatureF,DewpointF,PressureIn,WindDirection,WindDirectionDegrees,WindSpeedMPH,WindSpeedGustMPH,Humidity,HourlyPrecipIn,Conditions,Clouds,dailyrainin,SoftwareType,DateUTC
2013-04-29 00:01:00,65.0,47.0,29.96,West,278,0.0,2.0,52,0.00,,,0.00,,2013-04-29 07:01:00,
2013-04-29 00:11:00,65.0,47.0,29.96,West,278,0.0,2.0,52,0.00,,,0.00,,2013-04-29 07:11:00,
2013-04-29 00:21:00,64.0,46.0,29.96,West,278,1.0,1.0,52,0.00,,,0.00,,2013-04-29 07:21:00,
2013-04-29 00:31:00,65.0,47.0,29.96,West,278,1.0,1.0,52,0.00,,,0.00,,2013-04-29 07:31:00,
2013-04-29 00:41:00,65.0,47.0,29.96,West,278,1.0,1.0,52,0.00,,,0.00,,2013-04-29 07:41:00,
2013-04-29 00:52:00,64.0,47.0,29.96,West,278,1.0,1.0,54,0.00,,,0.00,,2013-04-29 07:52:00,
2013-04-29 01:02:00,64.0,48.0,29.96,West,278,1.0,2.0,56,0.00,,,0.00,,2013-04-29 08:02:00,
2013-04-29 01:11:00,64.0,48.0,29.96,West,278,1.0,2.0,56,0.00,,,0.00,,2013-04-29 08:11:00,
2013-04-29 01:21:00,63.0,47.0,29.96,West,278,0.0,2.0,56,0.00,,,0.00,,2013-04-29 08:21:00,
2013-04-29 01:31:00,63.0,48.0,29.96,NE,36,1.0,2.0,57,0.00,,,0.00,,2013-04-29 08:31:00,
2013-04-29 01:41:00,63.0,48.0,29.96,NE,36,1.0,2.0,57,0.00,,,0.00,,2013-04-29 08:41:00,
2013-04-29 01:51:00,63.0,48.0,29.96,NE,36,1.0,1.0,57,0.00,,,0.00,,2013-04-29 08:51:00,
2013-04-29 02:01:00,63.0,48.0,29.96,NE,36,1.0,1.0,57,0.00,,,0.00,,2013-04-29 09:01:00,
2013-04-29 02:11:00,63.0,48.0,29.96,NE,36,1.0,1.0,57,0.00,,,0.00,,2013-04-29 09:11:00,
2013-04-29 02:21:00,62.0,48.0,29.96,ENE,74,0.0,1.0,61,0.00,,,0.00,,2013-04-29 09:21:00,
2013-04-29 02:32:00,62.0,48.0,29.95,ENE,74,0.0,1.0,61,0.00,,,0.00,,2013-04-29 09:32:00,
2013-04-29 02:42:00,62.0,48.0,29.95,ENE,74,0.0,1.0,61,0.00,,,0.00,,2013-04-29 09:42:00,
2013-04-29 02:52:00,62.0,49.0,29.94,ENE,74,0.0,1.0,62,0.00,,,0.00,,2013-04-29 09:52:00,
2013-04-29 03:02:00,64.0,48.0,29.94,ENE,74,1.0,2.0,56,0.00,,,0.00,,2013-04-29 10:02:00,
2013-04-29 03:12:00,64.0,48.0,29.94,ENE,74,1.0,2.0,56,0.00,,,0.00,,2013-04-29 10:12:00,
2013-04-29 03:22:00,66.0,46.0,29.94,ENE,74,1.0,2.0,49,0.00,,,0.00,,2013-04-29 10:22:00,
2013-04-29 03:32:00,66.0,46.0,29.93,ENE,74,327.0,327.0,49,0.00,,,0.00,,2013-04-29 10:32:00,
2013-04-29 03:42:00,66.0,46.0,29.93,ENE,74,327.0,327.0,49,0.00,,,0.00,,2013-04-29 10:42:00,
2013-04-29 03:52:00,66.0,45.0,29.93,ENE,74,1.0,2.0,47,0.00,,,0.00,,2013-04-29 10:52:00,
2013-04-29 04:02:00,67.0,44.0,29.93,ENE,74,1.0,2.0,44,0.00,,,0.00,,2013-04-29 11:02:00,
2013-04-29 04:12:00,67.0,44.0,29.93,ENE,74,1.0,2.0,44,0.00,,,0.00,,2013-04-29 11:12:00,
2013-04-29 04:21:00,68.0,45.0,29.93,ENE,74,1.0,2.0,44,0.00,,,0.00,,2013-04-29 11:21:00,
2013-04-29 04:32:00,66.0,45.0,29.93,ENE,74,1.0,2.0,47,0.00,,,0.00,,2013-04-29 11:32:00,
2013-04-29 04:52:00,65.0,46.0,29.93,ENE,74,1.0,2.0,50,0.00,,,0.00,,2013-04-29 11:52:00,
2013-04-29 05:01:00,64.0,45.0,29.93,ENE,74,1.0,1.0,50,0.00,,,0.00,,2013-04-29 12:01:00,
2013-04-29 05:11:00,64.0,45.0,29.93,ENE,74,1.0,1.0,50,0.00,,,0.00,,2013-04-29 12:11:00,
2013-04-29 05:21:00,64.0,45.0,29.93,ENE,74,1.0,1.0,50,0.00,,,0.00,,2013-04-29 12:21:00,
2013-04-29 05:31:00,64.0,45.0,29.93,ENE,74,0.0,1.0,51,0.00,,,0.00,,2013-04-29 12:31:00,
2013-04-29 05:51:00,63.0,45.0,29.93,ENE,74,0.0,1.0,52,0.00,,,0.00,,2013-04-29 12:51:00,
2013-04-29 06:01:00,62.0,45.0,29.93,ENE,74,0.0,1.0,54,0.00,,,0.00,,2013-04-29 13:01:00,
2013-04-29 06:11:00,62.0,45.0,29.93,ENE,74,0.0,1.0,54,0.00,,,0.00,,2013-04-29 13:11:00,
2013-04-29 06:21:00,62.0,45.0,29.94,ENE,74,1.0,1.0,54,0.00,,,0.00,,2013-04-29 13:21:00,
2013-04-29 06:31:00,61.0,45.0,29.94,ENE,74,0.0,2.0,56,0.00,,,0.00,,2013-04-29 13:31:00,
2013-04-29 06:42:00,61.0,45.0,29.94,ENE,74,0.0,2.0,56,0.00,,,0.00,,2013-04-29 13:42:00,
2013-04-29 06:52:00,61.0,46.0,29.94,ENE,74,0.0,1.0,58,0.00,,,0.00,,2013-04-29 13:52:00,
2013-04-29 07:01:00,60.0,47.0,29.95,ENE,74,0.0,2.0,61,0.00,,,0.00,,2013-04-29 14:01:00,
2013-04-29 07:11:00,60.0,47.0,29.95,ENE,74,0.0,2.0,61,0.00,,,0.00,,2013-04-29 14:11:00,
2013-04-29 07:21:00,60.0,47.0,29.95,ENE,74,0.0,1.0,62,0.00,,,0.00,,2013-04-29 14:21:00,
2013-04-29 07:32:00,60.0,48.0,29.96,ENE,74,0.0,1.0,64,0.00,,,0.00,,2013-04-29 14:32:00,
2013-04-29 07:42:00,60.0,48.0,29.96,ENE,74,0.0,1.0,64,0.00,,,0.00,,2013-04-29 14:42:00,
2013-04-29 07:51:00,60.0,48.0,29.96,ENE,74,0.0,1.0,64,0.00,,,0.00,,2013-04-29 14:51:00,
2013-04-29 08:01:00,61.0,49.0,29.96,ENE,74,0.0,1.0,64,0.00,,,0.00,,2013-04-29 15:01:00,
2013-04-29 08:12:00,61.0,49.0,29.96,ENE,74,0.0,1.0,64,0.00,,,0.00,,2013-04-29 15:12:00,
2013-04-29 08:21:00,64.0,49.0,29.97,ENE,74,1.0,1.0,59,0.00,,,0.00,,2013-04-29 15:21:00,
2013-04-29 08:33:00,66.0,50.0,29.97,SSW,207,1.0,2.0,56,0.00,,,0.00,,2013-04-29 15:33:00,
2013-04-29 08:42:00,66.0,50.0,29.97,SSW,207,1.0,2.0,56,0.00,,,0.00,,2013-04-29 15:42:00,
2013-04-29 08:52:00,67.0,50.0,29.97,SW,225,1.0,2.0,54,0.00,,,0.00,,2013-04-29 15:52:00,
2013-04-29 09:02:00,67.0,50.0,29.97,SW,225,1.0,2.0,54,0.00,,,0.00,,2013-04-29 16:02:00,
2013-04-29 09:12:00,67.0,50.0,29.97,SW,225,1.0,2.0,54,0.00,,,0.00,,2013-04-29 16:12:00,
2013-04-29 09:23:00,67.0,50.0,29.97,SW,225,1.0,2.0,54,0.00,,,0.00,,2013-04-29 16:23:00,
2013-04-29 18:01:00,80.0,51.0,29.85,WSW,238,2.0,11.0,37,0.00,,,0.00,,2013-04-30 01:01:00,
2013-04-29 18:11:00,80.0,51.0,29.85,WSW,238,2.0,11.0,37,0.00,,,0.00,,2013-04-30 01:11:00,
2013-04-29 18:21:00,79.0,51.0,29.85,WNW,286,2.0,7.0,38,0.00,,,0.00,,2013-04-30 01:21:00,
2013-04-29 18:32:00,78.0,51.0,29.85,NNE,28,2.0,9.0,39,0.00,,,0.00,,2013-04-30 01:32:00,
2013-04-29 18:41:00,78.0,51.0,29.85,NNE,28,2.0,9.0,39,0.00,,,0.00,,2013-04-30 01:41:00,
2013-04-29 18:51:00,77.0,50.0,29.85,WSW,238,2.0,5.0,39,0.00,,,0.00,,2013-04-30 01:51:00,
2013-04-29 19:01:00,76.0,51.0,29.84,WNW,302,2.0,6.0,41,0.00,,,0.00,,2013-04-30 02:01:00,
2013-04-29 19:11:00,76.0,51.0,29.84,WNW,302,2.0,6.0,41,0.00,,,0.00,,2013-04-30 02:11:00,
2013-04-29 19:21:00,74.0,49.0,29.84,SSE,157,2.0,7.0,42,0.00,,,0.00,,2013-04-30 02:21:00,
2013-04-29 19:31:00,72.0,49.0,29.85,WSW,258,1.0,5.0,44,0.00,,,0.00,,2013-04-30 02:31:00,
2013-04-29 19:41:00,72.0,49.0,29.85,WSW,258,1.0,5.0,44,0.00,,,0.00,,2013-04-30 02:41:00,
2013-04-29 19:51:00,71.0,49.0,29.85,WNW,300,2.0,7.0,46,0.00,,,0.00,,2013-04-30 02:51:00,
2013-04-29 20:01:00,70.0,49.0,29.84,SW,229,2.0,4.0,47,0.00,,,0.00,,2013-04-30 03:01:00,
2013-04-29 20:11:00,70.0,49.0,29.84,SW,229,2.0,4.0,47,0.00,,,0.00,,2013-04-30 03:11:00,
2013-04-29 20:21:00,68.0,48.0,29.84,WSW,253,2.0,5.0,48,0.00,,,0.00,,2013-04-30 03:21:00,
2013-04-29 20:33:00,67.0,48.0,29.84,WNW,296,2.0,4.0,50,0.00,,,0.00,,2013-04-30 03:33:00,
2013-04-29 20:42:00,67.0,48.0,29.84,WNW,296,2.0,4.0,50,0.00,,,0.00,,2013-04-30 03:42:00,
2013-04-29 20:52:00,66.0,48.0,29.85,West,279,1.0,4.0,52,0.00,,,0.00,,2013-04-30 03:52:00,
2013-04-29 21:02:00,65.0,47.0,29.85,NW,312,1.0,3.0,53,0.00,,,0.00,,2013-04-30 04:02:00,
2013-04-29 21:12:00,65.0,47.0,29.85,NW,312,1.0,3.0,53,0.00,,,0.00,,2013-04-30 04:12:00,
2013-04-29 21:22:00,64.0,47.0,29.85,NW,314,2.0,6.0,54,0.00,,,0.00,,2013-04-30 04:22:00,
2013-04-29 21:32:00,64.0,47.0,29.85,SW,225,2.0,4.0,55,0.00,,,0.00,,2013-04-30 04:32:00,
2013-04-29 21:42:00,64.0,47.0,29.85,SW,225,2.0,4.0,55,0.00,,,0.00,,2013-04-30 04:42:00,
2013-04-29 21:52:00,64.0,48.0,29.85,West,278,1.0,3.0,56,0.00,,,0.00,,2013-04-30 04:52:00,
2013-04-29 22:02:00,63.0,48.0,29.85,WSW,248,1.0,4.0,57,0.00,,,0.00,,2013-04-30 05:02:00,
2013-04-29 22:11:00,63.0,48.0,29.85,WSW,248,1.0,4.0,57,0.00,,,0.00,,2013-04-30 05:11:00,
2013-04-29 22:22:00,63.0,48.0,29.85,SW,223,2.0,5.0,57,0.00,,,0.00,,2013-04-30 05:22:00,
2013-04-29 22:31:00,63.0,48.0,29.85,SW,223,2.0,5.0,57,0.00,,,0.00,,2013-04-30 05:31:00,
2013-04-29 22:42:00,63.0,48.0,29.85,SW,223,2.0,5.0,57,0.00,,,0.00,,2013-04-30 05:42:00,
2013-04-29 22:51:00,62.0,47.0,29.86,SSE,155,1.0,4.0,59,0.00,,,0.00,,2013-04-30 05:51:00,
2013-04-29 23:01:00,60.0,47.0,29.85,WNW,283,0.0,2.0,61,0.00,,,0.00,,2013-04-30 06:01:00,
2013-04-29 23:11:00,60.0,47.0,29.85,WNW,283,0.0,2.0,61,0.00,,,0.00,,2013-04-30 06:11:00,
2013-04-29 23:21:00,60.0,47.0,29.85,SSE,156,1.0,3.0,62,0.00,,,0.00,,2013-04-30 06:21:00,
2013-04-29 23:31:00,59.0,46.0,29.86,East,90,0.0,4.0,63,0.00,,,0.00,,2013-04-30 06:31:00,
2013-04-29 23:41:00,59.0,46.0,29.86,East,90,0.0,4.0,63,0.00,,,0.00,,2013-04-30 06:41:00,
2013-04-29 23:52:00,58.0,46.0,29.85,SE,143,1.0,2.0,65,0.00,,,0.00,,2013-04-30 06:52:00,